Airfield :
LOGIN :

Register | Disclaimer

   EN    FR    IT 

 










Legend :    VFR   Marginal VFR   IFR   Intensive IFR   Very Intensive IFR
Visi :
Ceiling :
>= 8 km
>= 3000ft
5 to 8 km
1000 to 3000 ft
1500m to 5 km
500 to 1000 ft
800 to 1500m
200 to 500 ft
< 800m
< 200 ft
Symbols :   Thunderstorms  Fog  Heavy snow  Heavy precipitations  Wind > 20 kt
SIGMETs :     Misc.  Thunderstorms  Icing  Turbulence  Mountain Waves  Volcanic Ashes






- Airport Elevation : 390 ft
- IATA code : NQY


EGHQ - Newquay

CURRENT METAR :
  • 150920Z 21004KT 180V250 9999 SCT006 21/19 Q1003

EXPIRED METARs :
  • 150850Z 23005KT 190V270 9000 4000W VCFG FEW001 SCT006 21/19 Q1003
  • 150820Z 24007KT 8000 2000W VCFG SCT004 20/19 Q1003
  • 150750Z 21006KT 6000 VCFG SCT003 20/19 Q1003
  • 150720Z 02004KT 310V080 4000 BR NSC 19/18 Q1003 RERA
  • 150650Z 13005KT 0600 R30/1400D VCFG SCT002 19/18 Q1003

TAF TAF EGHQ
Valid from the 15 at 09:00 until the 15 at 18:00 UTC


150800Z 1509/1518 24006KT 6000 NSC
BECMG 1509/1510 CAVOK
TEMPO 1509/1518 7000 SHRA
PROB30
TEMPO 1509/1512 3000 +SHRA
PROB40
TEMPO 1512/1518 3000 +TSGS +SHRA BKN045CB



MET'MAP, your aeronautical weather chart ! - Copyright ORBIFLY December 2007 - Disclaimer

ORBIFLY MET'MAP TEAM :

Programming & Development : Alexandra Zaïnal
Original concept : Baudouin d'Aumeries
Technical & hardware support : Manuel Goepfert
Assistance : Marc-Olivier Méhu




SOURCES & CREDITS :

   NOAA